Time;durP1;ratioP1;P1;durP2;ratioP2;P2;SDS_P1;SDS_P2;PMS_P1;PMS_P2;Temp;Humidity;BMP_temperature;BMP_pressure;BME280_temperature;BME280_humidity;BME280_pressure;Samples;Min_cycle;Max_cycle;Signal;HPM_P1;HPM_P2
2024/01/18 00:02:16;;;;;;;7.22;3.47;;;-2.50;99.90;;;;;;5081964;28;20080;-53
2024/01/18 00:04:42;;;;;;;8.35;3.53;;;-2.40;99.90;;;;;;5082380;28;20371;-59
2024/01/18 00:07:08;;;;;;;10.32;3.88;;;-2.40;99.90;;;;;;5078137;28;20051;-59
2024/01/18 00:09:34;;;;;;;13.80;4.45;;;-2.40;99.90;;;;;;5080976;28;20905;-52
2024/01/18 00:11:59;;;;;;;17.60;4.43;;;-2.30;99.90;;;;;;5079720;28;20040;-58
2024/01/18 00:14:25;;;;;;;12.90;4.90;;;-2.20;99.90;;;;;;5082790;28;20043;-54
2024/01/18 00:16:51;;;;;;;8.05;3.25;;;-2.00;99.90;;;;;;5079005;28;20478;-58
2024/01/18 00:19:17;;;;;;;12.10;3.95;;;-1.90;99.90;;;;;;5080103;28;20040;-52
2024/01/18 00:21:42;;;;;;;18.88;7.93;;;-1.70;99.90;;;;;;5074710;28;20065;-56
2024/01/18 00:24:08;;;;;;;16.38;10.95;;;-1.70;99.90;;;;;;5080930;28;20080;-54
2024/01/18 00:26:34;;;;;;;16.77;9.63;;;-1.60;99.90;;;;;;5071999;28;20135;-60
2024/01/18 00:29:00;;;;;;;15.73;4.35;;;-1.60;99.90;;;;;;5081732;28;20626;-55
2024/01/18 00:31:26;;;;;;;9.18;2.88;;;-1.50;99.90;;;;;;5078699;28;20131;-61
2024/01/18 00:33:57;;;;;;;5.72;2.83;;;-1.50;99.90;;;;;;5080972;28;20127;-50
2024/01/18 00:36:27;;;;;;;11.40;2.17;;;-1.60;99.90;;;;;;5077484;28;20060;-56
2024/01/18 00:38:53;;;;;;;9.73;2.10;;;-1.40;99.90;;;;;;5076327;28;20042;-49
2024/01/18 00:41:20;;;;;;;8.07;2.08;;;-1.40;99.90;;;;;;5080194;28;20044;-57
2024/01/18 00:43:48;;;;;;;10.15;3.03;;;-1.40;99.90;;;;;;5081839;28;20631;-50
2024/01/18 00:46:21;;;;;;;5.40;2.60;;;-1.40;99.90;;;;;;5080186;28;20148;-52
2024/01/18 00:48:47;;;;;;;10.93;2.85;;;-1.50;99.90;;;;;;5081884;28;20568;-48
2024/01/18 00:51:12;;;;;;;4.60;2.15;;;-1.70;99.90;;;;;;5076808;28;20139;-50
2024/01/18 00:53:39;;;;;;;4.25;1.70;;;-1.80;99.90;;;;;;5082349;28;20124;-57
2024/01/18 00:56:09;;;;;;;5.00;2.00;;;-1.80;99.90;;;;;;5080902;28;20075;-57
2024/01/18 00:58:42;;;;;;;7.93;2.95;;;-1.80;99.90;;;;;;5082063;28;20047;-52
2024/01/18 01:01:08;;;;;;;6.85;4.15;;;-1.80;99.90;;;;;;5079670;28;20055;-54
2024/01/18 01:03:34;;;;;;;11.02;4.97;;;-1.60;99.90;;;;;;5065331;28;20048;-48
2024/01/18 01:06:00;;;;;;;13.30;4.45;;;-1.50;99.90;;;;;;5081845;28;20055;-58
2024/01/18 01:08:27;;;;;;;8.25;3.42;;;-1.50;99.90;;;;;;5080672;28;20434;-48
2024/01/18 01:10:52;;;;;;;11.70;3.20;;;-1.30;99.90;;;;;;5079564;28;20122;-54
2024/01/18 01:13:18;;;;;;;16.52;4.63;;;-1.20;99.90;;;;;;5078134;28;20131;-57
2024/01/18 01:15:44;;;;;;;4.50;2.40;;;-1.20;99.90;;;;;;5079825;28;20055;-56
2024/01/18 01:18:10;;;;;;;9.50;2.20;;;-1.00;99.90;;;;;;5078524;28;20049;-52
2024/01/18 01:20:36;;;;;;;18.83;2.63;;;-1.00;99.90;;;;;;5079277;28;20044;-55
2024/01/18 01:23:03;;;;;;;10.77;1.38;;;-1.00;99.90;;;;;;5080083;28;20532;-52
2024/01/18 01:25:29;;;;;;;12.23;1.20;;;-1.00;99.90;;;;;;5080398;28;20056;-58
2024/01/18 01:27:55;;;;;;;6.28;1.15;;;-1.00;99.90;;;;;;5080698;28;20101;-54
2024/01/18 01:30:21;;;;;;;8.15;1.00;;;-0.90;99.90;;;;;;5079349;28;20079;-57
2024/01/18 01:32:47;;;;;;;3.55;0.90;;;-1.00;99.90;;;;;;5081667;28;20052;-57
2024/01/18 01:35:13;;;;;;;4.88;0.98;;;-1.00;99.90;;;;;;5076148;28;20053;-53
2024/01/18 01:37:45;;;;;;;6.65;1.00;;;-1.10;99.90;;;;;;5071637;28;20419;-56
2024/01/18 01:40:12;;;;;;;8.30;1.20;;;-1.20;99.90;;;;;;5063143;28;20486;-54
2024/01/18 01:42:37;;;;;;;9.18;1.10;;;-1.20;99.90;;;;;;5076013;28;20032;-56
2024/01/18 01:45:06;;;;;;;5.45;1.27;;;-1.10;99.90;;;;;;5078803;28;20125;-47
2024/01/18 01:47:31;;;;;;;9.10;3.78;;;-1.10;99.90;;;;;;5083239;28;20363;-55
2024/01/18 01:49:58;;;;;;;9.82;7.18;;;-1.00;99.90;;;;;;5084977;28;20486;-56
2024/01/18 01:52:25;;;;;;;12.77;9.60;;;-0.80;99.90;;;;;;5083044;28;20060;-48
2024/01/18 01:54:52;;;;;;;16.15;10.93;;;-0.60;99.90;;;;;;5084599;28;20059;-55
2024/01/18 01:57:20;;;;;;;14.18;9.68;;;-0.50;99.90;;;;;;5085170;28;20044;-55
2024/01/18 01:59:47;;;;;;;9.60;6.65;;;-0.50;99.90;;;;;;5082533;28;20044;-51
2024/01/18 02:02:13;;;;;;;5.03;2.80;;;-0.30;99.90;;;;;;5085621;28;20044;-53
2024/01/18 02:04:40;;;;;;;4.47;2.08;;;-0.20;99.90;;;;;;5082851;28;20059;-55
2024/01/18 02:07:08;;;;;;;9.88;4.18;;;-0.10;99.90;;;;;;5085452;28;20109;-59
2024/01/18 02:09:34;;;;;;;7.90;4.30;;;0.00;99.90;;;;;;5079608;28;20094;-53
2024/01/18 02:12:02;;;;;;;14.90;5.72;;;0.10;99.90;;;;;;5083111;28;20423;-59
2024/01/18 02:14:31;;;;;;;10.20;3.40;;;0.00;99.90;;;;;;5084997;28;20156;-58
2024/01/18 02:16:56;;;;;;;8.40;3.60;;;0.00;99.90;;;;;;5083478;28;20056;-51
2024/01/18 02:19:22;;;;;;;8.63;3.38;;;0.00;99.90;;;;;;5083661;28;20127;-59
2024/01/18 02:21:48;;;;;;;5.75;3.55;;;-0.10;99.90;;;;;;5082488;28;20088;-56
2024/01/18 02:24:20;;;;;;;10.55;4.45;;;-0.10;99.90;;;;;;5083911;28;20047;-58
2024/01/18 02:26:46;;;;;;;8.55;4.53;;;-0.20;99.90;;;;;;5078051;28;20134;-55
2024/01/18 02:29:11;;;;;;;7.80;1.92;;;-0.20;99.90;;;;;;5084883;28;20131;-57
2024/01/18 02:31:37;;;;;;;11.23;2.40;;;-0.20;99.90;;;;;;5082909;28;20050;-55
2024/01/18 02:34:09;;;;;;;2.22;1.60;;;-0.20;99.90;;;;;;5083815;28;20236;-57
2024/01/18 02:36:34;;;;;;;0.70;0.57;;;-0.20;99.90;;;;;;5084497;28;20043;-58
2024/01/18 02:39:00;;;;;;;3.97;0.80;;;-0.30;99.90;;;;;;5080209;28;20056;-57
2024/01/18 02:41:26;;;;;;;2.45;0.70;;;-0.30;99.90;;;;;;5081437;28;20343;-59
2024/01/18 02:43:53;;;;;;;1.75;0.45;;;-0.30;99.90;;;;;;5083672;28;20090;-56
2024/01/18 02:46:19;;;;;;;0.93;0.20;;;-0.40;99.90;;;;;;5084335;28;20059;-57
2024/01/18 02:48:46;;;;;;;2.47;0.32;;;-0.50;99.90;;;;;;5082334;28;20051;-55
2024/01/18 02:51:12;;;;;;;7.45;1.30;;;-0.50;99.90;;;;;;5083929;28;20040;-60
2024/01/18 02:53:37;;;;;;;4.35;0.75;;;-0.60;99.90;;;;;;5083062;28;20040;-57
2024/01/18 02:56:03;;;;;;;3.35;0.70;;;-0.70;99.90;;;;;;5082648;28;20051;-58
2024/01/18 02:58:29;;;;;;;2.00;0.40;;;-0.70;99.90;;;;;;5082425;28;20048;-61
2024/01/18 03:00:55;;;;;;;1.85;0.55;;;-0.80;99.90;;;;;;5080512;28;20044;-57
2024/01/18 03:03:20;;;;;;;4.57;0.60;;;-0.90;99.90;;;;;;5084685;28;20130;-59
2024/01/18 03:05:46;;;;;;;3.20;0.40;;;-1.00;99.90;;;;;;5082379;28;20042;-48
2024/01/18 03:08:12;;;;;;;5.05;0.77;;;-1.10;99.90;;;;;;5081860;28;20055;-55
2024/01/18 03:10:43;;;;;;;3.53;1.15;;;-1.20;99.90;;;;;;5079616;28;20083;-51
2024/01/18 03:13:09;;;;;;;13.30;2.13;;;-1.20;99.90;;;;;;5083082;28;20426;-59
2024/01/18 03:15:34;;;;;;;9.27;1.23;;;-1.20;99.90;;;;;;5083371;28;20147;-57
2024/01/18 03:18:00;;;;;;;7.07;0.85;;;-1.30;99.90;;;;;;5082638;28;20044;-53
2024/01/18 03:20:26;;;;;;;3.53;0.75;;;-1.30;99.90;;;;;;5081251;28;20051;-58
2024/01/18 03:22:51;;;;;;;5.10;0.50;;;-1.30;99.90;;;;;;5068245;28;20048;-57
2024/01/18 03:25:17;;;;;;;5.95;0.80;;;-1.30;99.90;;;;;;5082878;28;20056;-59
2024/01/18 03:27:49;;;;;;;3.53;1.90;;;-1.20;99.90;;;;;;5083736;28;20082;-51
2024/01/18 03:30:15;;;;;;;4.18;2.10;;;-1.20;99.90;;;;;;5077715;28;20076;-55
2024/01/18 03:32:40;;;;;;;8.32;2.38;;;-1.10;99.90;;;;;;5083743;28;20048;-56
2024/01/18 03:35:06;;;;;;;3.05;1.60;;;-1.00;99.90;;;;;;5082102;28;20143;-57
2024/01/18 03:37:32;;;;;;;2.30;1.48;;;-1.00;99.90;;;;;;5082095;28;20044;-58
2024/01/18 03:39:58;;;;;;;1.70;0.50;;;-0.90;99.90;;;;;;5080828;28;20537;-58
2024/01/18 03:42:24;;;;;;;0.43;0.20;;;-0.60;99.90;;;;;;5080870;28;20044;-54
2024/01/18 03:44:50;;;;;;;2.90;0.28;;;-0.20;99.90;;;;;;5082342;28;20573;-55
2024/01/18 03:47:16;;;;;;;0.85;0.10;;;0.00;99.90;;;;;;5077572;28;20714;-53
2024/01/18 03:49:43;;;;;;;1.13;0.05;;;0.10;99.90;;;;;;5083373;28;20051;-60
2024/01/18 03:52:13;;;;;;;7.53;0.30;;;0.30;99.90;;;;;;5079661;28;20044;-55
2024/01/18 03:54:41;;;;;;;0.95;0.15;;;0.30;99.90;;;;;;5075943;28;20111;-57
2024/01/18 03:57:07;;;;;;;5.20;0.30;;;0.30;99.90;;;;;;5081109;28;20040;-58
2024/01/18 03:59:33;;;;;;;1.77;0.20;;;0.30;99.90;;;;;;5083745;28;20655;-57
2024/01/18 04:01:58;;;;;;;5.63;0.57;;;0.30;99.90;;;;;;5080442;28;20079;-54
2024/01/18 04:04:24;;;;;;;7.00;0.65;;;0.40;99.90;;;;;;5082982;28;20044;-54
2024/01/18 04:06:50;;;;;;;30.65;12.43;;;0.30;99.90;;;;;;5080880;28;20052;-52
2024/01/18 04:09:15;;;;;;;90.68;17.98;;;0.30;99.90;;;;;;5079339;28;20142;-57
2024/01/18 04:11:42;;;;;;;25.77;9.73;;;0.30;99.90;;;;;;5080918;28;20039;-56
2024/01/18 04:14:08;;;;;;;0.93;0.93;;;0.40;99.90;;;;;;5076121;28;20083;-58
2024/01/18 04:16:34;;;;;;;9.60;2.85;;;0.50;99.90;;;;;;5076469;28;20131;-61
2024/01/18 04:19:00;;;;;;;2.13;1.95;;;0.40;99.90;;;;;;5081522;28;20577;-61
2024/01/18 04:21:26;;;;;;;0.65;0.57;;;0.50;99.90;;;;;;5082409;28;20055;-58
2024/01/18 04:23:52;;;;;;;1.55;0.57;;;0.40;99.90;;;;;;5062594;28;20585;-56
2024/01/18 04:26:18;;;;;;;0.30;0.30;;;0.40;99.90;;;;;;5077906;28;20757;-55
2024/01/18 04:28:44;;;;;;;1.60;0.10;;;0.30;99.90;;;;;;5081026;28;20040;-51
2024/01/18 04:31:10;;;;;;;2.58;0.13;;;0.10;99.90;;;;;;5080925;28;20659;-51
2024/01/18 04:33:36;;;;;;;3.50;0.50;;;0.10;99.90;;;;;;5078104;28;20052;-53
2024/01/18 04:36:02;;;;;;;1.48;0.50;;;0.00;99.90;;;;;;5079599;28;20086;-62
2024/01/18 04:38:28;;;;;;;8.30;0.50;;;-0.10;99.90;;;;;;5082377;28;20044;-53
2024/01/18 04:40:53;;;;;;;6.88;0.93;;;-0.20;99.90;;;;;;5081219;28;20507;-53
2024/01/18 04:43:19;;;;;;;0.95;0.30;;;-0.30;99.90;;;;;;5078460;28;20046;-56
2024/01/18 04:45:45;;;;;;;2.70;0.22;;;-0.40;99.90;;;;;;5079900;28;20036;-57
2024/01/18 04:48:11;;;;;;;2.05;0.55;;;-0.40;99.90;;;;;;5081472;28;20482;-51
2024/01/18 04:50:36;;;;;;;0.13;0.13;;;-0.60;99.90;;;;;;5080924;28;20422;-51
2024/01/18 04:53:02;;;;;;;0.13;0.10;;;-0.70;99.90;;;;;;5081187;28;20841;-56
2024/01/18 04:55:28;;;;;;;4.25;0.30;;;-0.80;99.90;;;;;;5081591;28;20047;-61
2024/01/18 04:57:55;;;;;;;3.08;0.50;;;-0.90;99.90;;;;;;5076153;28;20079;-57
2024/01/18 05:00:21;;;;;;;2.85;0.15;;;-1.00;99.90;;;;;;5081398;28;20137;-59
2024/01/18 05:02:47;;;;;;;2.75;0.30;;;-0.90;99.90;;;;;;5077985;28;20067;-47
2024/01/18 05:05:13;;;;;;;2.80;0.30;;;-1.00;99.90;;;;;;5079330;28;20152;-52
2024/01/18 05:07:41;;;;;;;1.52;0.20;;;-1.10;99.90;;;;;;5082240;28;20500;-55
2024/01/18 05:10:11;;;;;;;0.95;0.38;;;-1.10;99.90;;;;;;5080694;28;20073;-57
2024/01/18 05:12:44;;;;;;;1.25;0.30;;;-1.30;99.90;;;;;;5075861;28;20904;-56
2024/01/18 05:15:11;;;;;;;4.72;0.45;;;-1.30;99.90;;;;;;5079321;28;20083;-57
2024/01/18 05:17:38;;;;;;;2.35;0.40;;;-1.40;99.90;;;;;;5081970;28;20047;-58
2024/01/18 05:20:06;;;;;;;0.20;0.20;;;-1.30;99.90;;;;;;5081952;28;20048;-50
2024/01/18 05:22:34;;;;;;;1.05;0.32;;;-1.50;99.90;;;;;;5083146;28;20044;-51
2024/01/18 05:25:00;;;;;;;1.55;0.40;;;-1.60;99.90;;;;;;5066291;28;20079;-48
2024/01/18 05:27:28;;;;;;;2.80;0.22;;;-1.70;99.90;;;;;;5083942;28;20517;-54
2024/01/18 05:29:54;;;;;;;3.45;0.50;;;-1.80;99.90;;;;;;5086238;28;20132;-51
2024/01/18 05:32:23;;;;;;;4.80;0.43;;;-1.80;99.90;;;;;;5083678;28;20126;-56
2024/01/18 05:34:49;;;;;;;5.65;0.47;;;-1.90;99.90;;;;;;5084531;28;20121;-56
2024/01/18 05:37:16;;;;;;;3.42;0.38;;;-1.90;99.90;;;;;;5081588;28;20048;-58
2024/01/18 05:39:42;;;;;;;2.20;0.40;;;-2.10;99.90;;;;;;5083953;28;20044;-49
2024/01/18 05:42:08;;;;;;;2.13;0.82;;;-2.10;99.90;;;;;;5063079;28;20047;-51
2024/01/18 05:44:34;;;;;;;3.15;0.57;;;-2.20;99.90;;;;;;5084511;28;20048;-59
2024/01/18 05:47:06;;;;;;;1.58;0.30;;;-2.30;99.90;;;;;;5084716;28;20414;-61
2024/01/18 05:49:31;;;;;;;2.63;0.43;;;-2.40;99.90;;;;;;5084888;28;20044;-47
2024/01/18 05:51:57;;;;;;;4.47;0.65;;;-2.50;99.90;;;;;;5081694;28;20075;-51
2024/01/18 05:54:23;;;;;;;5.85;1.00;;;-2.60;99.90;;;;;;5085043;28;20089;-51
2024/01/18 05:56:49;;;;;;;1.70;0.30;;;-2.70;99.90;;;;;;5081252;28;20041;-57
2024/01/18 05:59:14;;;;;;;0.40;0.40;;;-2.80;99.90;;;;;;5084755;28;20760;-60
2024/01/18 06:01:41;;;;;;;1.83;0.32;;;-3.00;99.90;;;;;;5083733;28;20040;-58
2024/01/18 06:04:07;;;;;;;4.35;0.50;;;-3.00;99.90;;;;;;5080571;28;20044;-59
2024/01/18 06:06:33;;;;;;;2.80;0.43;;;-2.90;99.90;;;;;;5083622;28;20053;-54
2024/01/18 06:08:59;;;;;;;4.13;0.45;;;-3.10;99.90;;;;;;5083714;28;20117;-60
2024/01/18 06:11:25;;;;;;;1.13;0.32;;;-3.10;99.90;;;;;;5076685;28;20048;-58
2024/01/18 06:13:51;;;;;;;4.63;0.65;;;-3.10;99.90;;;;;;5081599;28;20548;-53
2024/01/18 06:16:19;;;;;;;4.72;0.65;;;-3.00;99.90;;;;;;5082496;28;20511;-62
2024/01/18 06:18:45;;;;;;;6.30;1.05;;;-2.50;99.90;;;;;;5083298;28;20062;-53
2024/01/18 06:21:11;;;;;;;5.28;0.70;;;-1.80;99.90;;;;;;5085018;28;20048;-46
2024/01/18 06:23:37;;;;;;;6.32;0.75;;;-1.20;99.90;;;;;;5077708;28;20237;-59
2024/01/18 06:26:07;;;;;;;13.90;0.88;;;-0.90;99.90;;;;;;5082967;28;20055;-54
2024/01/18 06:28:33;;;;;;;8.52;0.98;;;-0.70;99.90;;;;;;5081142;28;20135;-59
2024/01/18 06:30:58;;;;;;;8.13;1.20;;;-0.60;99.90;;;;;;5082458;28;20165;-50
2024/01/18 06:33:26;;;;;;;2.80;0.65;;;-0.60;99.90;;;;;;5082737;28;20044;-52
2024/01/18 06:35:52;;;;;;;2.80;0.35;;;-0.60;99.90;;;;;;5082045;28;20056;-61
2024/01/18 06:38:20;;;;;;;3.50;0.60;;;-0.60;99.90;;;;;;5084708;28;20417;-57
2024/01/18 06:40:47;;;;;;;10.95;0.80;;;-0.60;99.90;;;;;;5081501;28;20097;-54
2024/01/18 06:43:13;;;;;;;3.33;0.55;;;-0.70;99.90;;;;;;5084291;28;20533;-60
2024/01/18 06:45:39;;;;;;;0.45;0.25;;;-0.70;99.90;;;;;;5080747;28;20120;-52
2024/01/18 06:48:06;;;;;;;0.60;0.20;;;-0.70;99.90;;;;;;5083992;28;20469;-54
2024/01/18 06:50:32;;;;;;;6.40;0.63;;;-0.80;99.90;;;;;;5081192;28;20062;-58
2024/01/18 06:52:59;;;;;;;4.15;0.77;;;-0.80;99.90;;;;;;5082569;28;20126;-57
2024/01/18 06:55:26;;;;;;;0.80;0.30;;;-0.80;99.90;;;;;;5083688;28;20040;-53
2024/01/18 06:57:51;;;;;;;0.95;0.30;;;-0.90;99.90;;;;;;5081705;28;20048;-59
2024/01/18 07:00:24;;;;;;;3.65;0.40;;;-1.00;99.90;;;;;;5084932;28;20047;-46
2024/01/18 07:02:51;;;;;;;4.45;0.60;;;-1.10;99.90;;;;;;5082583;28;20572;-53
2024/01/18 07:05:20;;;;;;;1.75;0.40;;;-1.20;99.90;;;;;;5083774;28;20051;-57
2024/01/18 07:07:46;;;;;;;4.38;0.38;;;-1.20;99.90;;;;;;5082118;28;20086;-56
2024/01/18 07:10:12;;;;;;;4.47;0.63;;;-1.20;99.90;;;;;;5080147;28;20561;-54
2024/01/18 07:12:38;;;;;;;1.50;0.50;;;-1.30;99.90;;;;;;5082678;28;20074;-55
2024/01/18 07:15:07;;;;;;;5.10;1.15;;;-1.50;99.90;;;;;;5080928;28;20066;-57
2024/01/18 07:17:32;;;;;;;8.45;1.30;;;-1.50;99.90;;;;;;5083614;28;20138;-55
2024/01/18 07:19:58;;;;;;;2.78;1.30;;;-1.50;99.90;;;;;;5082524;28;20056;-59
2024/01/18 07:22:27;;;;;;;7.47;1.98;;;-1.50;99.90;;;;;;5082501;28;20060;-57
2024/01/18 07:24:53;;;;;;;5.75;1.95;;;-1.50;99.90;;;;;;5081571;28;20059;-55
2024/01/18 07:27:19;;;;;;;6.00;1.67;;;-1.50;99.90;;;;;;5082300;28;20047;-57
2024/01/18 07:29:45;;;;;;;4.68;1.55;;;-1.50;99.90;;;;;;5082535;28;20039;-58
2024/01/18 07:32:11;;;;;;;5.53;1.02;;;-1.60;99.90;;;;;;5081493;28;20449;-52
2024/01/18 07:34:37;;;;;;;5.57;0.57;;;-1.70;99.90;;;;;;5079720;28;20068;-50
2024/01/18 07:37:03;;;;;;;1.75;0.30;;;-1.70;99.90;;;;;;5082256;28;20513;-58
2024/01/18 07:39:30;;;;;;;0.00;0.00;;;-1.70;99.90;;;;;;5082661;28;20081;-62
2024/01/18 07:41:56;;;;;;;0.30;0.17;;;-1.60;99.90;;;;;;5078477;28;20044;-58
2024/01/18 07:44:22;;;;;;;1.50;0.22;;;-1.40;99.90;;;;;;5083602;28;20401;-57
2024/01/18 07:46:49;;;;;;;1.80;0.50;;;-1.40;99.90;;;;;;5077210;28;20044;-46
2024/01/18 07:49:14;;;;;;;5.53;0.40;;;-1.10;99.90;;;;;;5081139;28;20757;-51
2024/01/18 07:51:41;;;;;;;8.98;0.60;;;-1.00;99.90;;;;;;5081796;28;20158;-50
2024/01/18 07:54:06;;;;;;;19.48;4.22;;;-0.90;99.90;;;;;;5062621;28;20044;-56
2024/01/18 07:56:32;;;;;;;9.27;1.20;;;-0.80;99.90;;;;;;5072180;28;20047;-55
2024/01/18 07:58:58;;;;;;;7.22;0.90;;;-0.70;99.90;;;;;;5074164;28;20041;-51
2024/01/18 08:01:23;;;;;;;8.57;1.55;;;-0.70;99.90;;;;;;5075655;28;20056;-51
2024/01/18 08:03:49;;;;;;;6.25;1.77;;;-0.50;99.90;;;;;;5076706;28;20055;-58
2024/01/18 08:06:15;;;;;;;3.97;1.40;;;-0.50;99.90;;;;;;5062714;28;20118;-56
2024/01/18 08:08:41;;;;;;;9.95;1.35;;;-0.40;99.90;;;;;;5078666;28;20084;-52
2024/01/18 08:11:14;;;;;;;7.10;1.58;;;-0.40;99.90;;;;;;5070846;28;20093;-59
2024/01/18 08:13:43;;;;;;;5.70;1.42;;;-0.40;99.90;;;;;;5069937;28;20090;-58
2024/01/18 08:16:09;;;;;;;5.53;1.17;;;-0.40;99.90;;;;;;5075251;28;20048;-60
2024/01/18 08:18:36;;;;;;;2.45;1.20;;;-0.30;99.90;;;;;;5081224;28;20283;-60
2024/01/18 08:21:02;;;;;;;6.18;0.80;;;-0.40;99.90;;;;;;5080009;28;20119;-48
2024/01/18 08:23:28;;;;;;;4.55;0.50;;;-0.50;99.90;;;;;;5077529;28;20557;-55
2024/01/18 08:25:54;;;;;;;6.60;0.65;;;-0.50;99.90;;;;;;5079193;28;20052;-51
2024/01/18 08:28:21;;;;;;;2.60;0.50;;;-0.60;99.90;;;;;;5061920;28;20051;-55
2024/01/18 08:30:47;;;;;;;8.98;0.70;;;-0.60;99.90;;;;;;5081305;28;20486;-60
2024/01/18 08:33:14;;;;;;;3.20;0.80;;;-0.60;99.90;;;;;;5077428;28;20093;-60
2024/01/18 08:35:40;;;;;;;4.05;0.38;;;-0.60;99.90;;;;;;5062778;28;20056;-55
2024/01/18 08:38:05;;;;;;;7.97;0.88;;;-0.70;99.90;;;;;;5073892;28;20040;-59
2024/01/18 08:40:32;;;;;;;2.60;0.47;;;-0.70;99.90;;;;;;5081322;28;20413;-58
2024/01/18 08:42:59;;;;;;;9.32;0.90;;;-0.80;99.90;;;;;;5079131;28;20568;-47
2024/01/18 08:45:24;;;;;;;2.50;0.50;;;-0.80;99.90;;;;;;5073298;28;20040;-55
2024/01/18 08:47:50;;;;;;;5.38;0.57;;;-0.80;99.90;;;;;;5043266;28;20134;-56
2024/01/18 08:50:16;;;;;;;0.57;0.22;;;-0.60;99.90;;;;;;5073649;28;20072;-61
2024/01/18 08:52:42;;;;;;;4.35;0.63;;;-0.70;99.90;;;;;;5081291;28;20403;-57
2024/01/18 08:55:08;;;;;;;1.15;0.43;;;-0.90;99.90;;;;;;5080422;28;20051;-58
2024/01/18 08:57:34;;;;;;;3.03;0.30;;;-1.30;99.90;;;;;;5079479;28;20040;-55
2024/01/18 09:00:00;;;;;;;5.30;0.40;;;-1.70;99.90;;;;;;5073844;28;20046;-58
2024/01/18 09:02:27;;;;;;;0.65;0.20;;;-1.70;99.90;;;;;;5057121;28;20048;-57
2024/01/18 09:04:53;;;;;;;4.45;0.40;;;-1.60;99.90;;;;;;5070515;28;20098;-54
2024/01/18 09:07:18;;;;;;;0.90;0.52;;;-1.40;99.90;;;;;;5076417;28;20479;-57
2024/01/18 09:09:45;;;;;;;3.05;0.43;;;-1.40;99.90;;;;;;5071831;28;20533;-51
2024/01/18 09:12:11;;;;;;;1.00;0.45;;;-1.30;99.90;;;;;;5072129;28;20123;-58
2024/01/18 09:14:37;;;;;;;1.35;0.30;;;-1.30;99.90;;;;;;5074844;28;20502;-54
2024/01/18 09:17:03;;;;;;;7.82;0.80;;;-1.20;99.90;;;;;;5074044;28;20565;-56
2024/01/18 09:19:30;;;;;;;3.38;0.80;;;-1.00;99.90;;;;;;5077489;28;20051;-57
2024/01/18 09:21:57;;;;;;;6.38;1.00;;;-0.90;99.90;;;;;;5069149;28;20563;-47
2024/01/18 09:24:23;;;;;;;5.35;1.10;;;-0.80;99.90;;;;;;5079389;28;20432;-51
2024/01/18 09:26:49;;;;;;;4.28;0.50;;;-0.70;99.90;;;;;;5065660;28;20109;-50
2024/01/18 09:29:15;;;;;;;2.33;0.45;;;-0.50;99.90;;;;;;5073589;28;20059;-51
2024/01/18 09:31:40;;;;;;;3.20;0.28;;;-0.40;99.90;;;;;;5059121;28;20047;-56
2024/01/18 09:34:15;;;;;;;3.15;0.25;;;-0.40;99.90;;;;;;5074614;28;20660;-55
2024/01/18 09:36:41;;;;;;;7.80;0.38;;;-0.40;99.90;;;;;;5068982;28;20085;-58
2024/01/18 09:39:08;;;;;;;1.25;0.47;;;-0.30;99.90;;;;;;5079764;28;20076;-55
2024/01/18 09:41:35;;;;;;;2.42;0.60;;;-0.30;99.90;;;;;;5065952;28;20079;-57
2024/01/18 09:44:03;;;;;;;1.17;0.43;;;-0.10;99.90;;;;;;5076374;28;20056;-60
2024/01/18 09:46:29;;;;;;;3.22;0.40;;;0.00;99.90;;;;;;5071733;28;20142;-60
2024/01/18 09:48:56;;;;;;;1.65;0.60;;;0.10;99.90;;;;;;5078013;28;20601;-55
2024/01/18 09:51:23;;;;;;;2.25;0.35;;;0.20;99.90;;;;;;5071154;28;20052;-58
2024/01/18 09:53:55;;;;;;;0.40;0.40;;;0.40;99.90;;;;;;5067540;28;20490;-61
2024/01/18 09:56:22;;;;;;;9.13;0.65;;;0.60;99.90;;;;;;5061849;28;20078;-51
2024/01/18 09:58:50;;;;;;;0.52;0.30;;;0.70;99.90;;;;;;5080524;28;20081;-50
2024/01/18 10:01:20;;;;;;;2.03;0.40;;;1.00;99.90;;;;;;5081508;28;20113;-51
2024/01/18 10:03:47;;;;;;;0.50;0.30;;;1.10;99.90;;;;;;5072554;28;20040;-59
2024/01/18 10:06:13;;;;;;;6.70;1.10;;;1.30;99.90;;;;;;5078827;28;20051;-57
2024/01/18 10:08:38;;;;;;;8.27;1.67;;;1.40;99.90;;;;;;5081092;28;20044;-57
2024/01/18 10:11:05;;;;;;;4.78;1.67;;;1.40;99.90;;;;;;5067911;28;20131;-57
2024/01/18 10:13:51;;;;;;;20.88;7.90;;;1.40;99.90;;;;;;5080317;28;20052;-53
2024/01/18 10:16:38;;;;;;;15.02;5.55;;;1.30;99.90;;;;;;5081404;28;20180;-58
2024/01/18 10:19:05;;;;;;;17.00;7.40;;;1.20;99.90;;;;;;5080236;28;20138;-60
2024/01/18 10:21:35;;;;;;;15.50;9.32;;;1.20;99.90;;;;;;5081203;28;20055;-49
2024/01/18 10:24:06;;;;;;;15.63;7.13;;;1.10;99.90;;;;;;5072905;28;20071;-54
2024/01/18 10:26:32;;;;;;;7.68;3.30;;;1.20;99.90;;;;;;5081043;28;20124;-48
2024/01/18 10:28:58;;;;;;;5.00;2.25;;;1.10;99.90;;;;;;5078359;28;20123;-54
2024/01/18 10:31:25;;;;;;;2.83;1.10;;;1.10;99.90;;;;;;5081888;28;20043;-53
2024/01/18 10:33:51;;;;;;;5.32;0.60;;;1.10;99.90;;;;;;5061210;28;20120;-60
2024/01/18 10:36:18;;;;;;;2.60;0.88;;;1.20;99.90;;;;;;5072040;28;20098;-55
2024/01/18 10:38:44;;;;;;;7.03;0.82;;;1.20;99.90;;;;;;5060469;28;20466;-56
2024/01/18 10:41:10;;;;;;;6.13;0.98;;;1.30;99.90;;;;;;5077331;28;20127;-57
2024/01/18 10:43:37;;;;;;;7.15;0.63;;;1.40;99.90;;;;;;5078846;28;20056;-51
2024/01/18 10:46:04;;;;;;;2.97;0.68;;;1.50;99.90;;;;;;5068534;28;20090;-57
2024/01/18 10:48:31;;;;;;;8.13;1.10;;;1.50;99.90;;;;;;5060087;28;20089;-55
2024/01/18 10:50:58;;;;;;;1.45;0.52;;;1.50;99.90;;;;;;5075918;28;20046;-51
2024/01/18 10:53:25;;;;;;;4.95;1.00;;;1.60;99.90;;;;;;5077855;28;20048;-51
2024/01/18 10:55:52;;;;;;;5.82;0.73;;;1.50;99.90;;;;;;5070486;28;20056;-59
2024/01/18 10:58:21;;;;;;;4.82;0.90;;;1.50;99.90;;;;;;5079421;28;20105;-62
2024/01/18 11:00:48;;;;;;;5.68;0.63;;;1.50;99.90;;;;;;5072966;28;20063;-57
2024/01/18 11:03:17;;;;;;;10.68;1.13;;;1.40;99.90;;;;;;5064368;28;20044;-52
2024/01/18 11:05:48;;;;;;;4.90;0.93;;;1.20;99.90;;;;;;5080994;28;20044;-55
2024/01/18 11:08:14;;;;;;;6.15;0.93;;;1.20;99.90;;;;;;5081844;28;20040;-56
2024/01/18 11:10:41;;;;;;;3.28;0.80;;;1.10;99.90;;;;;;5080903;28;20060;-57
2024/01/18 11:13:09;;;;;;;2.45;0.55;;;1.10;99.90;;;;;;5079595;28;20403;-56
2024/01/18 11:15:41;;;;;;;4.28;0.30;;;1.10;99.90;;;;;;5082331;28;20047;-57
2024/01/18 11:18:12;;;;;;;3.33;0.75;;;1.10;99.90;;;;;;5074970;28;20040;-57
2024/01/18 11:21:00;;;;;;;2.90;0.80;;;1.10;99.90;;;;;;5077284;28;20364;-54
2024/01/18 11:23:28;;;;;;;5.85;0.80;;;1.20;99.90;;;;;;5078213;28;20044;-56
2024/01/18 11:25:54;;;;;;;1.65;0.50;;;1.20;99.90;;;;;;5078311;28;20571;-52
2024/01/18 11:28:27;;;;;;;5.00;0.50;;;1.30;99.90;;;;;;5081417;28;20310;-53
2024/01/18 11:30:53;;;;;;;4.38;0.93;;;1.30;99.90;;;;;;5068740;28;20086;-57
2024/01/18 11:33:21;;;;;;;1.27;0.75;;;1.40;99.90;;;;;;5076735;28;20438;-53
2024/01/18 11:35:50;;;;;;;5.43;0.77;;;1.50;99.90;;;;;;5073028;28;20044;-57
2024/01/18 11:38:24;;;;;;;8.45;1.10;;;1.50;99.90;;;;;;5080803;28;20101;-57
2024/01/18 11:40:56;;;;;;;6.28;1.67;;;1.60;99.90;;;;;;5080911;28;20051;-51
2024/01/18 11:43:24;;;;;;;8.38;1.23;;;1.60;99.90;;;;;;5074422;28;20048;-51
2024/01/18 11:45:50;;;;;;;9.52;1.00;;;1.60;99.90;;;;;;5080816;28;20047;-57
2024/01/18 11:48:18;;;;;;;6.47;0.90;;;1.60;99.90;;;;;;5080551;28;20509;-56
2024/01/18 11:50:44;;;;;;;5.57;1.13;;;1.70;99.90;;;;;;5082579;28;20268;-50
2024/01/18 11:53:13;;;;;;;7.40;1.20;;;1.70;99.90;;;;;;5079063;28;20071;-54
2024/01/18 11:55:45;;;;;;;8.98;1.00;;;1.70;99.90;;;;;;5079756;28;20416;-53
2024/01/18 11:58:12;;;;;;;3.63;0.52;;;1.70;99.90;;;;;;5063953;28;20059;-60
2024/01/18 12:00:37;;;;;;;3.00;0.50;;;1.90;99.90;;;;;;5080452;28;20487;-55
2024/01/18 12:03:05;;;;;;;6.10;0.63;;;2.10;99.90;;;;;;5079614;28;20509;-59
2024/01/18 12:05:31;;;;;;;7.47;0.40;;;2.20;99.90;;;;;;5070964;28;20044;-53
2024/01/18 12:07:57;;;;;;;4.22;0.60;;;2.40;99.90;;;;;;5074561;28;20040;-60
2024/01/18 12:10:26;;;;;;;5.13;0.93;;;2.40;99.90;;;;;;5074434;28;20051;-53
2024/01/18 12:12:53;;;;;;;11.20;0.90;;;2.60;99.90;;;;;;5080053;28;20051;-57
2024/01/18 12:15:19;;;;;;;8.52;0.47;;;2.70;99.90;;;;;;5081268;28;20043;-52
2024/01/18 12:17:46;;;;;;;4.85;0.47;;;2.70;99.90;;;;;;5080601;28;20047;-57
2024/01/18 12:20:15;;;;;;;3.40;0.30;;;2.80;99.90;;;;;;5080148;28;20533;-57
2024/01/18 12:22:44;;;;;;;6.85;0.70;;;2.80;99.90;;;;;;5074206;28;20468;-49
2024/01/18 12:25:10;;;;;;;1.38;0.22;;;2.90;99.90;;;;;;5081356;28;20138;-60
2024/01/18 12:27:36;;;;;;;3.58;0.40;;;3.00;99.90;;;;;;5076952;28;20154;-54
2024/01/18 12:30:07;;;;;;;5.00;0.38;;;3.00;99.90;;;;;;5072806;28;20140;-53
2024/01/18 12:32:35;;;;;;;3.20;0.28;;;3.00;99.90;;;;;;5077178;28;20354;-52
2024/01/18 12:35:01;;;;;;;4.57;0.68;;;3.10;99.90;;;;;;5080072;28;20132;-60
2024/01/18 12:37:28;;;;;;;7.35;0.60;;;3.10;99.90;;;;;;5061189;28;20581;-57
2024/01/18 12:39:54;;;;;;;4.00;0.28;;;3.10;99.90;;;;;;5075387;28;20036;-55
2024/01/18 12:42:23;;;;;;;5.00;0.32;;;3.20;99.90;;;;;;5075987;28;20117;-50
2024/01/18 12:44:52;;;;;;;2.92;0.30;;;3.20;99.90;;;;;;5080226;28;20098;-50
2024/01/18 12:47:18;;;;;;;4.05;0.40;;;3.20;99.90;;;;;;5081872;28;20125;-54